Bookmark and Share
Track history (hours):
 

Yuho Maru No.3

Last reported at 2014-Apr-18 20:34 UTC. Time now 2014-Apr-18 20:51 UTC.
Position N 35°36' E 140°06'.

Length 65 m; draft 4.2 m.

Type: Tanker. MMSI: 431000336.

NotesDate/timePositionNaut miles runAvg speedWind from/ knotsBaromVisibWave heightAir tempDewpointWater temp
2014-Apr-18 20:34N 35°36' E 140°06'0 0.0
2014-Apr-18 19:34N 35°36' E 140°06'0 0.0
2014-Apr-18 18:33N 35°36' E 140°06'0 0.0
2014-Apr-18 17:33N 35°36' E 140°06'0 0.0
2014-Apr-18 16:34N 35°36' E 140°06'0 0.0
2014-Apr-18 15:33N 35°36' E 140°06'0 0.0
2014-Apr-18 14:34N 35°36' E 140°06'0 0.0
2014-Apr-18 13:33N 35°36' E 140°06'0 0.0
2014-Apr-18 12:33N 35°36' E 140°06'0 0.0
2014-Apr-18 11:33N 35°36' E 140°06'0 0.0
2014-Apr-18 10:33N 35°36' E 140°06'0 0.0
2014-Apr-18 09:33N 35°36' E 140°06'0 0.0
2014-Apr-18 08:33N 35°36' E 140°06'0 0.0
2014-Apr-18 07:33N 35°36' E 140°06'0 0.0
2014-Apr-18 06:33N 35°36' E 140°06'1 0.6
2014-Apr-18 05:34N 35°36' E 140°06'9 9.3
2014-Apr-18 04:33N 35°30' E 139°57'9 9.3
2014-Apr-18 03:33N 35°27' E 139°46'7 7.1
2014-Apr-18 02:33N 35°22' E 139°41'0 0.0
2014-Apr-18 01:33N 35°22' E 139°41'1 0.8
2014-Apr-18 00:33N 35°22' E 139°41'0 0.0
2014-Apr-17 23:33N 35°22' E 139°41'0 0.1
2014-Apr-17 22:33N 35°22' E 139°41'1 0.7
2014-Apr-17 21:33N 35°22' E 139°40'0 0.0
2014-Apr-17 20:34N 35°22' E 139°40'0 0.1
2014-Apr-17 19:34N 35°22' E 139°40'0 0.0
2014-Apr-17 18:33N 35°22' E 139°40'0 0.0
2014-Apr-17 17:33N 35°22' E 139°40'0 0.0
2014-Apr-17 16:33N 35°22' E 139°40'0 0.1
2014-Apr-17 15:33N 35°22' E 139°40'0 0.1
2014-Apr-17 14:33N 35°22' E 139°40'0 0.0
2014-Apr-17 13:33N 35°22' E 139°40'0 0.0
2014-Apr-17 12:33N 35°22' E 139°40'0 0.0
2014-Apr-17 11:34N 35°22' E 139°40'0 0.0
2014-Apr-17 10:33N 35°22' E 139°40'6 5.9
2014-Apr-17 09:33N 35°28' E 139°42'5 4.6
2014-Apr-17 08:34N 35°32' E 139°46'0 0.0
2014-Apr-17 07:33N 35°32' E 139°46'0 0.0
2014-Apr-17 06:34N 35°32' E 139°46'0 0.0
2014-Apr-17 05:33N 35°32' E 139°46'0 0.0
2014-Apr-17 04:34N 35°32' E 139°46'4 3.5
2014-Apr-17 03:33N 35°29' E 139°49'3 3.3
2014-Apr-17 02:33N 35°27' E 139°46'6 5.7
2014-Apr-17 01:33N 35°22' E 139°41'0 0.0
2014-Apr-17 00:33N 35°22' E 139°41'0 0.0
2014-Apr-16 23:34N 35°22' E 139°41'0 0.0
2014-Apr-16 22:33N 35°22' E 139°41'1 0.9
2014-Apr-16 21:33N 35°23' E 139°40'0 0.0
2014-Apr-16 20:33N 35°23' E 139°40'0 0.0
2014-Apr-16 19:33N 35°23' E 139°40'0 0.0
2014-Apr-16 18:33N 35°23' E 139°40'0 0.0
2014-Apr-16 17:33N 35°23' E 139°40'0 0.0
2014-Apr-16 16:33N 35°23' E 139°40'0 0.1
2014-Apr-16 15:33N 35°23' E 139°40'0 0.0
2014-Apr-16 14:33N 35°23' E 139°40'0 0.0
2014-Apr-16 13:33N 35°23' E 139°40'0 0.0
2014-Apr-16 12:34N 35°23' E 139°40'0 0.0
2014-Apr-16 11:33N 35°23' E 139°40'0 0.0
2014-Apr-16 10:33N 35°23' E 139°40'0 0.1
2014-Apr-16 09:33N 35°23' E 139°40'0 0.0
2014-Apr-16 08:34N 35°23' E 139°40'0 0.0
2014-Apr-16 07:33N 35°23' E 139°40'0 0.0
2014-Apr-16 06:33N 35°23' E 139°40'0 0.0
2014-Apr-16 05:33N 35°23' E 139°40'0 0.1
2014-Apr-16 04:33N 35°23' E 139°40'8 7.8
2014-Apr-16 03:33N 35°28' E 139°47'4 3.7
2014-Apr-16 02:34N 35°32' E 139°46'0 0.0
2014-Apr-16 01:33N 35°32' E 139°46'0 0.0
2014-Apr-16 00:33N 35°32' E 139°46'0 0.0
2014-Apr-15 23:32N 35°32' E 139°46'0 0.0
2014-Apr-15 22:33N 35°32' E 139°46'1 1.1
2014-Apr-15 21:34N 35°31' E 139°46'1212.2
2014-Apr-15 20:33N 35°34' E 140°01'5 4.9
2014-Apr-15 19:33N 35°36' E 140°06'0 0.0
2014-Apr-15 18:34N 35°36' E 140°06'0 0.0
2014-Apr-15 17:33N 35°36' E 140°06'0 0.0
2014-Apr-15 16:33N 35°36' E 140°06'0 0.0
2014-Apr-15 15:34N 35°36' E 140°06'0 0.0
2014-Apr-15 14:33N 35°36' E 140°06'0 0.0
2014-Apr-15 12:34N 35°36' E 140°06'0 0.0
2014-Apr-15 11:33N 35°36' E 140°06'0 0.0
2014-Apr-15 10:34N 35°36' E 140°06'0 0.0
2014-Apr-15 09:34N 35°36' E 140°06'0 0.0
2014-Apr-15 08:34N 35°36' E 140°06'0 0.0
2014-Apr-15 07:34N 35°36' E 140°06'0 0.0
2014-Apr-15 06:33N 35°36' E 140°06'0 0.0
2014-Apr-15 05:33N 35°36' E 140°06'0 0.0
2014-Apr-15 03:34N 35°36' E 140°06'0 0.0
2014-Apr-15 02:34N 35°36' E 140°06'0 0.0
2014-Apr-15 01:34N 35°36' E 140°06'0 0.0
2014-Apr-15 00:34N 35°36' E 140°06'0 0.0
2014-Apr-14 23:34N 35°36' E 140°06'9 8.9
2014-Apr-14 22:34N 35°30' E 139°58'3 2.6
2014-Apr-14 21:34N 35°29' E 139°55'0 0.0
2014-Apr-14 20:34N 35°29' E 139°55'0 0.0
2014-Apr-14 19:34N 35°29' E 139°55'0 0.0
2014-Apr-14 18:34N 35°29' E 139°55'0 0.0
2014-Apr-14 17:34N 35°29' E 139°55'0 0.1
2014-Apr-14 16:33N 35°29' E 139°55'3 3.4
2014-Apr-14 15:34N 35°28' E 139°51'1211.5
2014-Apr-14 14:33N 35°18' E 139°45'1211.5
2014-Apr-14 13:34N 35°06' E 139°46'23 7.5
2014-Apr-14 10:33N 35°00' E 140°12'62 4.4
2014-Apr-13 20:24N 35°57' E 140°42'0 0.0
2014-Apr-13 19:32N 35°57' E 140°42'0 0.0
2014-Apr-13 18:32N 35°57' E 140°42'2 1.7
2014-Apr-13 17:33N 35°58' E 140°44'32 9.6
2014-Apr-13 14:14N 35°26' E 140°42'3511.5
2014-Apr-13 11:12N 35°00' E 140°13'711.0
2014-Apr-13 10:33N 34°57' E 140°05'1111.1
2014-Apr-13 09:33N 34°52' E 139°53'1010.0
2014-Apr-13 08:32N 34°59' E 139°44'1110.7
2014-Apr-13 07:33N 35°09' E 139°46'1110.6
2014-Apr-13 06:34N 35°20' E 139°43'10 9.8
2014-Apr-13 05:33N 35°28' E 139°49'1111.0
2014-Apr-13 04:33N 35°33' E 140°01'4 4.2
2014-Apr-13 03:33N 35°33' E 140°06'0 0.0
2014-Apr-13 02:34N 35°33' E 140°06'0 0.0
2014-Apr-13 01:34N 35°33' E 140°06'0 0.0
2014-Apr-13 00:33N 35°33' E 140°06'2 2.1
2014-Apr-12 23:33N 35°34' E 140°04'7 7.3
2014-Apr-12 22:34N 35°41' E 139°59'0 0.0
2014-Apr-12 21:33N 35°41' E 139°59'0 0.0
2014-Apr-12 20:33N 35°41' E 139°59'0 0.0
2014-Apr-12 19:33N 35°41' E 139°59'0 0.0
2014-Apr-12 18:33N 35°41' E 139°59'0 0.0
2014-Apr-12 17:33N 35°41' E 139°59'0 0.0
2014-Apr-12 16:33N 35°41' E 139°59'0 0.0
2014-Apr-12 15:33N 35°41' E 139°59'0 0.0
2014-Apr-12 14:34N 35°41' E 139°59'0 0.0
2014-Apr-12 13:33N 35°41' E 139°59'0 0.0
2014-Apr-12 12:34N 35°41' E 139°59'0 0.0
2014-Apr-12 11:33N 35°41' E 139°59'0 0.0
2014-Apr-12 10:33N 35°41' E 139°59'0 0.0
2014-Apr-12 09:34N 35°41' E 139°59'0 0.0
2014-Apr-12 08:33N 35°41' E 139°59'0 0.0
2014-Apr-12 07:33N 35°41' E 139°59'0 0.0
2014-Apr-12 06:33N 35°41' E 139°59'0 0.0
2014-Apr-12 05:33N 35°41' E 139°59'2 2.0
2014-Apr-12 04:33N 35°40' E 139°57'0 0.4
2014-Apr-12 03:34N 35°40' E 139°56'1 0.6
2014-Apr-12 02:33N 35°40' E 139°57'1010.1
2014-Apr-12 01:33N 35°33' E 140°06'0 0.0
2014-Apr-12 00:34N 35°33' E 140°06'0 0.0
2014-Apr-11 23:34N 35°33' E 140°06'0 0.0
2014-Apr-11 22:34N 35°33' E 140°06'2 2.3
2014-Apr-11 21:33N 35°36' E 140°06'0 0.0
2014-Apr-11 20:34N 35°36' E 140°06'0 0.0
2014-Apr-11 19:33N 35°36' E 140°06'0 0.0
2014-Apr-11 18:33N 35°36' E 140°06'0 0.0
2014-Apr-11 17:33N 35°36' E 140°06'0 0.0
2014-Apr-11 16:34N 35°36' E 140°06'0 0.0
2014-Apr-11 15:33N 35°36' E 140°06'0 0.0
2014-Apr-11 14:34N 35°36' E 140°06'0 0.0
2014-Apr-11 13:33N 35°36' E 140°06'0 0.0
2014-Apr-11 12:33N 35°36' E 140°06'0 0.0
2014-Apr-11 11:33N 35°36' E 140°06'0 0.0
2014-Apr-11 10:33N 35°36' E 140°06'0 0.0
2014-Apr-11 09:33N 35°36' E 140°06'0 0.0
2014-Apr-11 08:34N 35°36' E 140°06'0 0.0
2014-Apr-11 07:33N 35°36' E 140°06'6 6.0
2014-Apr-11 06:33N 35°31' E 140°03'0 0.0
2014-Apr-11 05:33N 35°31' E 140°03'0 0.0
2014-Apr-11 04:33N 35°31' E 140°03'0 0.0
2014-Apr-11 03:33N 35°31' E 140°03'2 2.0
2014-Apr-11 02:33N 35°31' E 140°00'1111.5
2014-Apr-11 01:34N 35°31' E 139°46'0 0.2
2014-Apr-11 00:33N 35°31' E 139°46'0 0.0
2014-Apr-10 23:33N 35°31' E 139°46'0 0.0
2014-Apr-10 22:34N 35°31' E 139°46'0 0.0
2014-Apr-10 21:34N 35°31' E 139°46'2 2.3
2014-Apr-10 20:33N 35°29' E 139°46'0 0.0
2014-Apr-10 19:34N 35°29' E 139°46'0 0.0
2014-Apr-10 18:33N 35°29' E 139°46'0 0.0
2014-Apr-10 17:33N 35°29' E 139°46'6 6.4
2014-Apr-10 16:33N 35°22' E 139°45'9 9.0
2014-Apr-10 15:34N 35°13' E 139°47'244 9.3
2014-Apr-09 13:27N 34°07' E 135°02'1311.8
2014-Apr-09 12:20N 34°20' E 135°05'911.4
2014-Apr-09 11:33N 34°27' E 135°12'1110.9
2014-Apr-09 10:33N 34°33' E 135°23'2 2.3
2014-Apr-09 09:29N 34°33' E 135°26'0 0.0
2014-Apr-09 08:32N 34°33' E 135°26'0 0.0
2014-Apr-09 07:33N 34°33' E 135°26'0 0.0
2014-Apr-09 06:25N 34°33' E 135°26'0 0.0
2014-Apr-09 05:08N 34°33' E 135°26'0 0.0
2014-Apr-09 04:32N 34°33' E 135°26'0 0.1
2014-Apr-09 03:33N 34°33' E 135°25'0 0.1
2014-Apr-09 02:30N 34°33' E 135°26'1 0.1
2014-Apr-08 22:33N 34°33' E 135°26'0 0.1
2014-Apr-08 21:33N 34°33' E 135°26'  

Dump ship's entire track history

sailing weather and tide predictions

Yuho Maru No.3 — JD2491 — position and weather